Time;durP1;ratioP1;P1;durP2;ratioP2;P2;SDS_P1;SDS_P2;PMS_P1;PMS_P2;Temp;Humidity;BMP_temperature;BMP_pressure;BME280_temperature;BME280_humidity;BME280_pressure;Samples;Min_cycle;Max_cycle;Signal;HPM_P1;HPM_P2
2022/03/22 00:01:03;;;;;;;46.22;21.83;;;;;;;6.08;85.26;103043.13;5088142;28;20047;-83
2022/03/22 00:03:29;;;;;;;51.53;22.55;;;;;;;6.03;84.28;103038.66;5088384;28;20077;-83
2022/03/22 00:05:55;;;;;;;48.50;22.20;;;;;;;6.00;84.30;103036.03;5070853;28;20012;-83
2022/03/22 00:08:21;;;;;;;44.17;21.45;;;;;;;5.97;84.10;103041.94;5095489;28;20028;-83
2022/03/22 00:10:46;;;;;;;47.22;22.08;;;;;;;5.94;83.98;103041.84;5108387;28;20047;-83
2022/03/22 00:13:12;;;;;;;50.00;22.20;;;;;;;5.92;84.11;103046.09;5104486;28;20028;-83
2022/03/22 00:15:37;;;;;;;45.65;21.85;;;;;;;5.89;85.38;103041.72;5094763;28;20065;-83
2022/03/22 00:18:03;;;;;;;48.97;22.17;;;;;;;5.89;85.31;103045.97;5094608;28;20043;-83
2022/03/22 00:20:29;;;;;;;45.08;21.55;;;;;;;5.85;85.18;103042.41;5071376;28;20028;-83
2022/03/22 00:22:54;;;;;;;44.35;21.27;;;;;;;5.81;85.25;103040.56;5095717;28;20469;-83
2022/03/22 00:25:20;;;;;;;45.22;21.35;;;;;;;5.79;84.89;103038.78;5092608;28;20028;-83
2022/03/22 00:27:51;;;;;;;47.67;22.35;;;;;;;5.76;84.67;103047.25;5092696;28;20482;-83
2022/03/22 00:30:24;;;;;;;47.05;22.13;;;;;;;5.74;85.14;103046.34;5073326;28;20035;-83
2022/03/22 00:32:54;;;;;;;47.85;21.05;;;;;;;5.71;85.49;103046.25;5100644;28;20059;-83
2022/03/22 00:35:36;;;;;;;44.33;21.42;;;;;;;5.66;85.94;103052.09;5091320;28;20558;-83
2022/03/22 00:38:03;;;;;;;45.85;21.83;;;;;;;5.64;85.97;103046.88;5092250;28;20031;-83
2022/03/22 00:40:29;;;;;;;47.72;21.98;;;;;;;5.60;84.93;103046.72;5091867;28;20032;-83
2022/03/22 00:42:55;;;;;;;46.70;21.95;;;;;;;5.56;86.11;103046.63;5101137;28;20392;-83
2022/03/22 00:45:27;;;;;;;45.38;20.90;;;;;;;5.55;85.64;103044.88;5092142;28;20492;-83
2022/03/22 00:47:55;;;;;;;45.33;21.30;;;;;;;5.50;85.18;103049.00;5097990;28;20027;-83
2022/03/22 00:50:23;;;;;;;48.55;21.55;;;;;;;5.48;86.38;103047.19;5094284;28;20089;-83
2022/03/22 00:52:49;;;;;;;48.45;22.58;;;;;;;5.44;85.61;103045.38;5090794;28;20501;-83
2022/03/22 00:55:14;;;;;;;45.30;21.20;;;;;;;5.41;86.57;103053.84;5089992;28;20058;-83
2022/03/22 00:57:44;;;;;;;43.85;21.38;;;;;;;5.38;86.96;103052.88;5091677;28;20500;-83
2022/03/22 01:00:12;;;;;;;48.85;22.50;;;;;;;5.31;86.12;103054.38;5092814;28;20085;-83
2022/03/22 01:02:40;;;;;;;45.92;21.58;;;;;;;5.29;86.81;103057.72;5080011;28;20111;-83
2022/03/22 01:05:11;;;;;;;51.35;22.60;;;;;;;5.25;86.50;103055.88;5090567;28;20012;-83
2022/03/22 01:07:37;;;;;;;47.88;21.90;;;;;;;5.22;87.17;103056.63;5091496;28;20473;-83
2022/03/22 01:10:07;;;;;;;49.15;21.33;;;;;;;5.19;86.84;103055.69;5092688;28;20067;-83
2022/03/22 01:12:34;;;;;;;47.40;21.38;;;;;;;5.15;87.91;103049.53;5093763;28;20439;-83
2022/03/22 01:15:10;;;;;;;49.42;22.65;;;;;;;5.13;87.39;103057.19;5096532;28;20042;-83
2022/03/22 01:17:38;;;;;;;48.33;21.98;;;;;;;5.12;88.07;103067.41;5106028;28;20054;-83
2022/03/22 01:20:06;;;;;;;48.15;22.25;;;;;;;5.07;87.11;103059.56;5094505;28;20257;-83
2022/03/22 01:22:32;;;;;;;48.47;21.88;;;;;;;5.04;86.68;103049.19;5092917;28;20024;-83
2022/03/22 01:24:58;;;;;;;47.97;21.85;;;;;;;5.03;86.96;103061.97;5089981;28;20051;-83
2022/03/22 01:27:24;;;;;;;46.63;21.40;;;;;;;5.00;86.92;103061.84;5096316;28;20016;-83
2022/03/22 01:29:49;;;;;;;49.78;22.70;;;;;;;5.01;88.27;103054.22;5072103;28;20089;-83
2022/03/22 01:32:15;;;;;;;49.22;21.45;;;;;;;4.99;88.33;103054.97;5082990;28;20485;-83
2022/03/22 01:34:42;;;;;;;46.00;21.55;;;;;;;4.97;88.20;103054.94;5091647;28;20111;-83
2022/03/22 01:37:08;;;;;;;48.05;21.83;;;;;;;4.95;87.71;103058.25;5102500;28;20123;-83
2022/03/22 01:39:33;;;;;;;49.25;22.05;;;;;;;4.92;87.04;103051.31;5099161;28;20259;-83
2022/03/22 01:41:59;;;;;;;46.45;21.67;;;;;;;4.91;87.58;103059.88;5090883;28;20016;-83
2022/03/22 01:44:25;;;;;;;49.47;22.60;;;;;;;4.95;88.84;103059.13;5092494;28;20051;-83
2022/03/22 01:46:54;;;;;;;46.20;22.25;;;;;;;4.95;88.50;103059.13;5108438;28;20758;-83
2022/03/22 01:49:19;;;;;;;43.70;20.95;;;;;;;4.96;88.23;103054.88;5093406;28;20035;-83
2022/03/22 01:51:48;;;;;;;49.45;21.63;;;;;;;4.98;88.89;103059.22;5072431;28;20103;-83
2022/03/22 01:54:15;;;;;;;46.80;21.40;;;;;;;4.97;87.83;103057.50;5090127;28;20039;-83
2022/03/22 01:56:40;;;;;;;47.33;20.98;;;;;;;4.95;88.14;103053.13;5090399;28;20099;-83
2022/03/22 01:59:06;;;;;;;46.25;22.27;;;;;;;5.00;88.98;103046.44;5089993;28;20455;-83
2022/03/22 02:07:08;;;;;;;44.15;20.73;;;;;;;4.96;86.91;103036.88;5099412;28;20079;-83
2022/03/22 02:09:33;;;;;;;44.08;20.55;;;;;;;4.99;88.41;103049.81;5102033;28;20024;-83
2022/03/22 02:11:59;;;;;;;46.22;20.88;;;;;;;4.96;88.47;103044.59;5089915;28;20409;-83
2022/03/22 02:14:25;;;;;;;43.88;19.63;;;;;;;4.96;88.73;103044.59;5089213;28;20468;-83
2022/03/22 02:16:50;;;;;;;43.08;20.52;;;;;;;4.94;88.85;103033.38;5095324;28;20102;-83
2022/03/22 02:19:16;;;;;;;43.33;21.38;;;;;;;5.04;90.01;103043.16;5089758;28;20117;-83
2022/03/22 02:21:42;;;;;;;45.58;20.92;;;;;;;5.09;89.22;103044.19;5096763;28;20024;-83
2022/03/22 02:24:08;;;;;;;45.35;21.05;;;;;;;5.16;90.30;103049.59;5108456;28;20027;-83
2022/03/22 02:26:33;;;;;;;46.83;20.75;;;;;;;5.18;90.73;103041.94;5089645;28;20055;-83
2022/03/22 02:28:59;;;;;;;49.00;22.13;;;;;;;5.20;90.15;103042.84;5088886;28;20393;-83
2022/03/22 02:31:28;;;;;;;46.60;20.60;;;;;;;5.23;90.29;103045.53;5089515;28;20032;-83
2022/03/22 02:33:55;;;;;;;43.22;20.75;;;;;;;5.18;89.14;103041.94;5089792;28;20481;-83
2022/03/22 02:36:21;;;;;;;41.13;19.58;;;;;;;5.14;89.00;103040.06;5090211;28;20027;-83
2022/03/22 02:38:46;;;;;;;43.17;20.02;;;;;;;5.08;88.53;103047.56;5101997;28;20431;-83
2022/03/22 02:41:20;;;;;;;42.75;19.70;;;;;;;5.02;87.27;103039.66;5088479;28;20389;-83
2022/03/22 02:43:48;;;;;;;41.75;20.08;;;;;;;4.96;88.49;103029.19;5089603;28;20110;-83
2022/03/22 02:46:14;;;;;;;38.53;18.48;;;;;;;4.90;88.03;103040.13;5092796;28;20051;-83
2022/03/22 02:48:39;;;;;;;38.40;18.80;;;;;;;4.88;87.95;103046.00;5071610;28;20024;-83
2022/03/22 02:51:04;;;;;;;37.80;18.67;;;;;;;4.85;87.79;103043.31;5094759;28;20107;-83
2022/03/22 02:53:30;;;;;;;38.95;18.63;;;;;;;4.78;88.68;103043.13;5089494;28;20028;-83
2022/03/22 02:55:55;;;;;;;38.35;18.27;;;;;;;4.74;88.11;103046.41;5091187;28;20027;-83
2022/03/22 02:58:20;;;;;;;39.92;19.48;;;;;;;4.74;88.85;103048.97;5092392;28;20028;-82
2022/03/22 03:00:46;;;;;;;39.75;19.52;;;;;;;4.66;88.65;103045.25;5091368;28;20051;-83
2022/03/22 03:03:11;;;;;;;36.90;18.10;;;;;;;4.63;87.53;103041.72;5109356;28;20024;-83
2022/03/22 03:05:37;;;;;;;41.40;19.13;;;;;;;4.61;87.85;103051.06;5098061;28;20274;-83
2022/03/22 03:08:03;;;;;;;39.47;19.33;;;;;;;4.56;87.88;103042.31;5071234;28;20085;-83
2022/03/22 03:10:28;;;;;;;41.60;18.80;;;;;;;4.50;87.97;103042.09;5087982;28;20455;-83
2022/03/22 03:13:01;;;;;;;42.53;19.27;;;;;;;4.48;88.37;103048.84;5096569;28;20480;-83
2022/03/22 03:15:27;;;;;;;41.72;18.77;;;;;;;4.45;88.77;103047.03;5102833;28;20036;-83
2022/03/22 03:17:52;;;;;;;38.70;18.45;;;;;;;4.42;88.89;103046.06;5096081;28;20019;-83
2022/03/22 03:20:18;;;;;;;38.13;18.73;;;;;;;4.37;88.56;103051.00;5093967;28;20028;-83
2022/03/22 03:22:43;;;;;;;41.58;19.33;;;;;;;4.34;88.61;103056.94;5093929;28;20023;-83
2022/03/22 03:25:09;;;;;;;43.10;19.20;;;;;;;4.34;90.07;103050.91;5093833;28;20032;-83
2022/03/22 03:27:35;;;;;;;45.58;20.98;;;;;;;4.36;90.72;103062.13;5088335;28;20032;-83
2022/03/22 03:30:01;;;;;;;46.55;20.15;;;;;;;4.40;91.71;103056.28;5070849;28;20024;-83
2022/03/22 03:32:27;;;;;;;43.45;20.58;;;;;;;4.40;90.30;103056.28;5093255;28;20438;-83
2022/03/22 03:34:52;;;;;;;44.63;20.35;;;;;;;4.44;90.87;103057.25;5106284;28;20019;-83
2022/03/22 03:37:17;;;;;;;45.42;20.50;;;;;;;4.46;90.92;103055.63;5093311;28;20034;-83
2022/03/22 03:39:44;;;;;;;41.88;19.70;;;;;;;4.48;90.16;103066.84;5098245;28;20059;-83
2022/03/22 03:42:10;;;;;;;37.35;18.70;;;;;;;4.46;90.41;103063.31;5092114;28;20029;-83
2022/03/22 03:47:22;;;;;;;40.30;19.05;;;;;;;4.40;90.06;103070.81;5095930;28;20042;-83
2022/03/22 03:49:53;;;;;;;37.85;18.55;;;;;;;4.33;89.37;103072.28;5092702;28;20020;-83
2022/03/22 03:52:30;;;;;;;39.40;17.35;;;;;;;4.26;88.90;103070.28;5097429;28;20111;-83
2022/03/22 03:54:57;;;;;;;40.97;19.27;;;;;;;4.22;89.42;103068.44;5092070;28;20024;-83
2022/03/22 03:57:23;;;;;;;42.53;19.50;;;;;;;4.20;89.96;103077.75;5092339;28;20038;-83
2022/03/22 03:59:50;;;;;;;38.00;18.13;;;;;;;4.19;89.93;103076.00;5092999;28;20407;-83
2022/03/22 04:02:16;;;;;;;44.65;18.58;;;;;;;4.18;90.24;103074.25;5092066;28;20465;-83
2022/03/22 04:04:42;;;;;;;41.88;19.50;;;;;;;4.17;90.46;103077.63;5093144;28;20539;-83
2022/03/22 04:07:09;;;;;;;39.47;19.02;;;;;;;4.18;90.97;103082.81;5091730;28;20047;-83
2022/03/22 04:09:36;;;;;;;43.63;19.88;;;;;;;4.20;91.19;103078.63;5097921;28;20027;-83
2022/03/22 04:12:03;;;;;;;41.42;19.95;;;;;;;4.19;91.47;103078.56;5091596;28;20040;-83
2022/03/22 04:14:28;;;;;;;37.38;18.83;;;;;;;4.17;90.88;103083.63;5092780;28;20032;-83
2022/03/22 04:16:57;;;;;;;56.85;22.25;;;;;;;4.16;90.30;103086.16;5073455;28;20553;-83
2022/03/22 04:19:23;;;;;;;44.38;20.25;;;;;;;4.15;91.03;103085.28;5091876;28;20519;-83
2022/03/22 04:21:49;;;;;;;46.45;21.73;;;;;;;4.17;91.20;103083.63;5082696;28;20032;-83
2022/03/22 04:24:15;;;;;;;44.53;20.40;;;;;;;4.16;90.44;103087.00;5092294;28;20047;-83
2022/03/22 04:26:42;;;;;;;55.65;24.02;;;;;;;4.09;89.27;103087.63;5091285;28;20455;-83
2022/03/22 04:34:41;;;;;;;53.77;22.70;;;;;;;3.92;89.33;103086.94;5092209;28;20085;-83
2022/03/22 04:37:07;;;;;;;54.28;23.15;;;;;;;3.88;89.62;103086.78;5105976;28;20076;-83
2022/03/22 04:39:34;;;;;;;53.05;22.65;;;;;;;3.84;90.16;103092.59;5092076;28;20038;-83
2022/03/22 04:42:00;;;;;;;48.80;21.05;;;;;;;3.79;90.05;103084.72;5099011;28;20389;-83
2022/03/22 04:44:27;;;;;;;49.13;20.17;;;;;;;3.75;90.61;103085.41;5092051;28;20028;-83
2022/03/22 04:46:53;;;;;;;40.53;18.67;;;;;;;3.72;90.96;103082.72;5093461;28;20031;-83
2022/03/22 04:49:18;;;;;;;46.60;19.00;;;;;;;3.70;90.71;103094.59;5091698;28;20020;-83
2022/03/22 04:57:11;;;;;;;48.85;19.25;;;;;;;3.58;89.53;103096.66;5091267;28;20466;-83
2022/03/22 04:59:37;;;;;;;43.88;19.05;;;;;;;3.57;90.43;103097.47;5105614;28;20480;-83
2022/03/22 05:02:02;;;;;;;40.67;17.92;;;;;;;3.55;90.76;103096.53;5105979;28;20106;-83
2022/03/22 05:04:28;;;;;;;42.70;18.73;;;;;;;3.54;90.54;103103.38;5091480;28;20067;-83
2022/03/22 05:06:54;;;;;;;41.87;18.43;;;;;;;3.52;91.36;103104.09;5072825;28;20053;-83
2022/03/22 05:09:20;;;;;;;43.38;19.83;;;;;;;3.52;91.13;103105.00;5090782;28;20321;-83
2022/03/22 05:11:45;;;;;;;44.95;18.98;;;;;;;3.52;91.03;103109.22;5097098;28;20039;-83
2022/03/22 05:14:11;;;;;;;41.58;18.98;;;;;;;3.48;90.36;103105.66;5093036;28;20032;-82
2022/03/22 05:16:36;;;;;;;43.20;18.88;;;;;;;3.52;91.24;103110.13;5091408;28;20055;-82
2022/03/22 05:19:04;;;;;;;38.03;18.13;;;;;;;3.48;90.20;103105.66;5090850;28;20043;-82
2022/03/22 05:21:29;;;;;;;39.13;18.85;;;;;;;3.51;91.38;103112.59;5093749;28;20020;-82
2022/03/22 05:23:55;;;;;;;41.80;18.10;;;;;;;3.51;91.22;103110.03;5091223;28;20034;-82
2022/03/22 05:26:20;;;;;;;40.88;19.20;;;;;;;3.55;92.11;103117.03;5079537;28;20169;-82
2022/03/22 05:28:45;;;;;;;43.55;18.67;;;;;;;3.56;91.87;103116.22;5090106;28;20120;-82
2022/03/22 05:31:14;;;;;;;40.92;19.05;;;;;;;3.54;91.69;103123.00;5090944;28;20091;-82
2022/03/22 05:33:40;;;;;;;39.35;19.17;;;;;;;3.52;91.23;103125.50;5092658;28;20028;-82
2022/03/22 05:36:06;;;;;;;43.55;19.83;;;;;;;3.49;91.52;103124.47;5073180;28;20028;-82
2022/03/22 05:38:32;;;;;;;42.30;19.30;;;;;;;3.48;91.61;103123.59;5083183;28;20036;-83
2022/03/22 05:40:57;;;;;;;43.20;19.23;;;;;;;3.49;92.03;103127.91;5091727;28;21339;-83
2022/03/22 05:43:24;;;;;;;44.90;19.65;;;;;;;3.48;91.61;103131.28;5085092;28;20028;-83
2022/03/22 05:45:50;;;;;;;41.08;19.17;;;;;;;3.50;91.48;103131.34;5105572;28;20103;-82
2022/03/22 05:48:16;;;;;;;37.40;17.98;;;;;;;3.52;92.27;103128.06;5104810;28;20033;-82
2022/03/22 05:50:41;;;;;;;42.28;19.67;;;;;;;3.52;91.47;103128.06;5095853;28;20035;-82
2022/03/22 05:53:07;;;;;;;47.17;19.17;;;;;;;3.53;91.19;103131.50;5091807;28;20066;-82
2022/03/22 05:55:32;;;;;;;41.50;19.15;;;;;;;3.56;91.67;103131.63;5090313;28;20446;-82
2022/03/22 05:57:57;;;;;;;48.78;20.17;;;;;;;3.61;91.90;103134.38;5089910;28;20031;-82
2022/03/22 06:00:23;;;;;;;50.33;21.35;;;;;;;3.66;92.58;103131.19;5090171;28;20023;-82
2022/03/22 06:02:48;;;;;;;39.78;20.23;;;;;;;3.75;92.90;103130.72;5089489;28;20031;-82
2022/03/22 06:05:16;;;;;;;46.58;20.23;;;;;;;3.84;93.15;103138.75;5089906;28;20457;-82
2022/03/22 06:07:42;;;;;;;44.35;20.52;;;;;;;3.93;92.53;103134.00;5090319;28;20024;-82
2022/03/22 06:10:09;;;;;;;52.85;21.55;;;;;;;4.06;92.92;103135.38;5089856;28;20043;-82
2022/03/22 06:12:40;;;;;;;43.63;20.08;;;;;;;4.17;92.98;103131.53;5083206;28;20031;-83
2022/03/22 06:15:15;;;;;;;44.38;19.27;;;;;;;4.33;92.29;103136.44;5092151;28;20073;-83
2022/03/22 06:17:50;;;;;;;45.28;19.83;;;;;;;4.59;92.15;103132.28;5096971;28;20030;-83
2022/03/22 06:20:25;;;;;;;46.00;20.25;;;;;;;4.90;91.29;103145.47;5088378;28;20046;-83
2022/03/22 06:22:51;;;;;;;46.42;20.95;;;;;;;5.22;90.08;103143.16;5089506;28;20511;-83
2022/03/22 06:25:18;;;;;;;46.15;20.67;;;;;;;5.44;89.75;103141.41;5089790;28;20024;-82
2022/03/22 06:27:45;;;;;;;47.25;20.85;;;;;;;5.75;89.25;103135.56;5094491;28;20031;-83
2022/03/22 06:30:11;;;;;;;45.53;20.05;;;;;;;6.03;88.23;103145.09;5098353;28;20112;-83
2022/03/22 06:32:45;;;;;;;42.20;20.00;;;;;;;6.22;87.02;103138.81;5085872;28;20027;-83
2022/03/22 06:35:11;;;;;;;50.15;21.88;;;;;;;6.32;86.07;103140.88;5090063;28;20161;-83
2022/03/22 06:37:38;;;;;;;51.97;20.80;;;;;;;6.47;87.06;103137.88;5090013;28;20035;-83
2022/03/22 06:40:07;;;;;;;43.25;21.20;;;;;;;6.85;86.41;103137.28;5088266;28;20032;-83
2022/03/22 06:42:33;;;;;;;45.33;21.15;;;;;;;7.42;84.43;103135.44;5073826;28;20020;-83
2022/03/22 06:44:58;;;;;;;42.83;21.13;;;;;;;7.75;83.54;103134.53;5091951;28;20036;-83
2022/03/22 06:47:23;;;;;;;42.47;20.52;;;;;;;8.39;82.00;103144.69;5092854;28;20027;-83
2022/03/22 06:49:49;;;;;;;47.60;20.50;;;;;;;8.92;78.45;103143.25;5072001;28;20031;-83
2022/03/22 06:52:14;;;;;;;47.17;20.38;;;;;;;9.16;77.56;103149.72;5089099;28;20431;-83
2022/03/22 06:54:39;;;;;;;43.73;20.40;;;;;;;9.45;76.27;103151.16;5089225;28;20030;-83
2022/03/22 06:57:06;;;;;;;47.90;20.80;;;;;;;9.72;74.89;103153.34;5088815;28;20380;-83
2022/03/22 06:59:32;;;;;;;42.08;19.42;;;;;;;9.90;74.90;103148.44;5089076;28;20282;-83
2022/03/22 07:01:57;;;;;;;47.80;21.20;;;;;;;10.40;74.34;103153.56;5085747;28;20026;-83
2022/03/22 07:04:23;;;;;;;52.20;21.05;;;;;;;10.87;73.00;103151.59;5073036;28;20038;-83
2022/03/22 07:06:48;;;;;;;43.55;20.65;;;;;;;11.18;71.02;103153.69;5076735;28;20384;-83
2022/03/22 07:09:13;;;;;;;45.00;19.97;;;;;;;11.35;67.75;103151.28;5087793;28;20032;-82
2022/03/22 07:11:49;;;;;;;45.77;19.57;;;;;;;11.33;68.32;103151.25;5090964;28;20663;-83
2022/03/22 07:14:32;;;;;;;41.97;20.05;;;;;;;11.31;69.82;103159.91;5088492;28;20415;-83
2022/03/22 07:16:58;;;;;;;41.00;20.30;;;;;;;11.20;70.39;103158.88;5091353;28;20051;-83
2022/03/22 07:19:23;;;;;;;41.70;20.88;;;;;;;11.13;68.93;103152.75;5096268;28;20072;-83
2022/03/22 07:21:49;;;;;;;39.57;20.60;;;;;;;11.06;69.39;103157.00;5094940;28;20072;-83
2022/03/22 07:24:18;;;;;;;42.45;21.15;;;;;;;11.00;67.63;103159.53;5103072;28;20295;-83
2022/03/22 07:26:44;;;;;;;37.88;19.92;;;;;;;10.99;68.03;103156.91;5083224;28;20059;-83
2022/03/22 07:29:09;;;;;;;41.28;21.17;;;;;;;10.98;68.61;103163.00;5096370;28;20067;-83
2022/03/22 07:31:38;;;;;;;42.13;20.95;;;;;;;11.02;66.61;103164.75;5095654;28;20030;-83
2022/03/22 07:34:11;;;;;;;44.58;23.25;;;;;;;11.25;66.23;103170.22;5096452;28;20020;-82
2022/03/22 07:36:39;;;;;;;44.17;23.97;;;;;;;11.56;64.46;103167.06;5075923;28;20384;-82
2022/03/22 07:39:07;;;;;;;43.25;21.65;;;;;;;11.73;64.84;103167.22;5077702;28;20028;-83
2022/03/22 07:41:34;;;;;;;40.72;20.23;;;;;;;11.79;62.60;103170.78;5071309;28;20029;-83
2022/03/22 07:44:01;;;;;;;39.40;20.75;;;;;;;11.82;61.65;103169.91;5098419;28;20034;-83
2022/03/22 07:46:26;;;;;;;40.78;21.25;;;;;;;11.82;63.00;103173.41;5097164;28;20532;-83
2022/03/22 07:48:52;;;;;;;41.58;21.73;;;;;;;12.03;61.45;103167.50;5096108;28;20031;-83
2022/03/22 07:54:02;;;;;;;51.87;27.83;;;;;;;12.83;61.60;103156.69;5095715;28;20449;-83
2022/03/22 07:56:28;;;;;;;46.20;25.48;;;;;;;13.01;57.90;103161.97;5094661;28;20770;-83
2022/03/22 07:58:53;;;;;;;45.85;24.05;;;;;;;13.09;56.94;103166.34;5096404;28;20502;-83
2022/03/22 08:01:18;;;;;;;40.67;21.48;;;;;;;13.06;58.18;103172.41;5108171;28;20031;-83
2022/03/22 08:03:44;;;;;;;41.42;21.42;;;;;;;13.04;59.45;103164.56;5097124;28;20028;-83
2022/03/22 08:06:09;;;;;;;39.75;21.05;;;;;;;13.15;59.73;103169.00;5094690;28;20024;-83
2022/03/22 08:08:37;;;;;;;41.42;20.58;;;;;;;13.29;58.75;103165.56;5091607;28;20077;-83
2022/03/22 08:11:05;;;;;;;44.42;22.52;;;;;;;13.65;61.44;103172.56;5094941;28;20048;-83
2022/03/22 08:13:32;;;;;;;42.45;21.38;;;;;;;14.17;57.40;103168.22;5095814;28;20028;-83
2022/03/22 08:15:57;;;;;;;38.97;21.13;;;;;;;14.76;56.51;103164.59;5095257;28;20020;-83
2022/03/22 08:18:22;;;;;;;36.72;20.40;;;;;;;15.29;54.69;103164.31;5096024;28;20019;-83
2022/03/22 08:20:48;;;;;;;39.53;21.10;;;;;;;15.73;56.03;103171.03;5079152;28;20043;-83
2022/03/22 08:23:13;;;;;;;37.33;20.83;;;;;;;16.18;52.68;103170.63;5096601;28;20587;-83
2022/03/22 08:25:46;;;;;;;36.47;20.33;;;;;;;17.02;52.21;103168.81;5096812;28;20054;-82
2022/03/22 08:28:12;;;;;;;38.88;21.30;;;;;;;17.65;50.22;103162.66;5075226;28;20416;-83
2022/03/22 08:30:39;;;;;;;42.55;21.15;;;;;;;18.38;47.76;103165.75;5091929;28;20052;-83
2022/03/22 08:33:11;;;;;;;39.67;21.50;;;;;;;18.97;48.17;103172.44;5091984;28;20024;-84
2022/03/22 08:35:41;;;;;;;41.00;21.67;;;;;;;19.28;45.79;103168.25;5100882;28;20106;-83
2022/03/22 08:38:07;;;;;;;38.88;21.58;;;;;;;19.29;45.79;103164.72;5094488;28;20102;-84
2022/03/22 08:40:33;;;;;;;33.05;19.63;;;;;;;19.27;44.19;103166.50;5093588;28;20139;-83
2022/03/22 08:42:58;;;;;;;39.53;21.58;;;;;;;19.37;45.08;103176.84;5090804;28;20594;-83
2022/03/22 08:45:26;;;;;;;37.33;22.10;;;;;;;19.58;44.57;103169.31;5091992;28;20024;-83
2022/03/22 08:47:53;;;;;;;36.88;22.08;;;;;;;19.51;44.05;103173.03;5090493;28;20040;-83
2022/03/22 08:50:20;;;;;;;39.90;23.50;;;;;;;19.44;45.29;103167.91;5091300;28;20040;-83
2022/03/22 08:52:47;;;;;;;38.35;21.65;;;;;;;19.54;43.26;103172.94;5090021;28;20309;-83
2022/03/22 08:55:15;;;;;;;35.05;21.23;;;;;;;19.51;42.60;103166.88;5091252;28;20034;-83
2022/03/22 08:57:42;;;;;;;40.13;22.17;;;;;;;19.46;41.73;103168.69;5073383;28;20028;-84
2022/03/22 09:00:09;;;;;;;39.80;23.65;;;;;;;19.32;41.12;103167.25;5090080;28;20024;-84
2022/03/22 09:02:36;;;;;;;35.67;21.70;;;;;;;19.46;42.76;103168.69;5088201;28;20077;-83
2022/03/22 09:07:47;;;;;;;40.35;23.30;;;;;;;19.49;41.53;103163.41;5089581;28;20092;-84
2022/03/22 09:10:14;;;;;;;40.08;23.52;;;;;;;19.43;42.08;103159.13;5092284;28;20043;-83
2022/03/22 09:12:39;;;;;;;39.40;24.00;;;;;;;19.37;42.65;103164.56;5091339;28;20031;-83
2022/03/22 09:15:09;;;;;;;37.38;23.35;;;;;;;19.43;41.19;103161.78;5089970;28;20028;-83
2022/03/22 09:17:35;;;;;;;37.25;23.35;;;;;;;19.47;40.06;103168.72;5091576;28;20023;-84
2022/03/22 09:20:00;;;;;;;37.92;23.90;;;;;;;19.22;42.56;103162.25;5091542;28;20022;-84
2022/03/22 09:22:25;;;;;;;38.30;23.27;;;;;;;18.87;43.69;103163.91;5089962;28;20035;-83
2022/03/22 09:24:51;;;;;;;40.53;23.73;;;;;;;18.67;42.08;103160.81;5091160;28;20047;-84
2022/03/22 09:27:16;;;;;;;42.08;23.45;;;;;;;18.58;42.10;103160.13;5081313;28;20284;-83
2022/03/22 09:29:41;;;;;;;41.30;22.98;;;;;;;18.63;42.25;103158.31;5087112;28;20035;-84
2022/03/22 09:32:07;;;;;;;41.63;23.00;;;;;;;18.62;42.40;103157.44;5089173;28;20019;-84
2022/03/22 09:34:33;;;;;;;38.78;23.17;;;;;;;18.48;41.79;103157.69;5088014;28;20437;-84
2022/03/22 09:37:00;;;;;;;38.35;22.73;;;;;;;18.30;42.64;103165.03;5085577;28;20031;-85
2022/03/22 09:39:25;;;;;;;41.65;22.75;;;;;;;18.24;41.18;103157.25;5090147;28;20028;-84
2022/03/22 09:41:51;;;;;;;39.03;23.25;;;;;;;18.13;42.71;103162.72;5086229;28;20028;-84
2022/03/22 09:44:18;;;;;;;36.50;22.00;;;;;;;18.08;42.89;103165.41;5086950;28;20055;-84
2022/03/22 09:46:50;;;;;;;41.17;23.48;;;;;;;18.06;42.63;103155.84;5095411;28;20501;-84
2022/03/22 09:49:18;;;;;;;40.83;23.10;;;;;;;18.00;42.43;103159.47;5091058;28;20501;-84
2022/03/22 09:51:44;;;;;;;38.78;21.75;;;;;;;17.94;41.51;103156.94;5091090;28;20106;-84
2022/03/22 09:54:14;;;;;;;39.05;21.75;;;;;;;17.91;41.91;103156.13;5082834;28;20039;-84
2022/03/22 09:56:40;;;;;;;37.83;22.08;;;;;;;17.86;42.33;103152.72;5082633;28;20456;-84
2022/03/22 09:59:06;;;;;;;36.67;21.25;;;;;;;17.85;42.28;103148.34;5088959;28;20077;-83
2022/03/22 10:01:32;;;;;;;41.42;22.85;;;;;;;17.85;41.77;103148.34;5086808;28;20568;-83
2022/03/22 10:04:03;;;;;;;38.35;22.77;;;;;;;17.81;42.23;103144.06;5089137;28;20020;-83
2022/03/22 10:06:30;;;;;;;38.45;22.63;;;;;;;17.75;42.37;103143.25;5088991;28;20094;-83
2022/03/22 10:08:56;;;;;;;42.90;24.27;;;;;;;17.58;41.98;103147.03;5093026;28;20020;-83
2022/03/22 10:11:21;;;;;;;37.65;22.42;;;;;;;17.43;41.56;103144.63;5089769;28;20059;-82
2022/03/22 10:13:55;;;;;;;37.47;22.83;;;;;;;17.31;42.82;103138.69;5091089;28;20111;-83
2022/03/22 10:16:21;;;;;;;39.20;21.85;;;;;;;17.32;41.99;103135.19;5090378;28;20049;-83
2022/03/22 10:18:47;;;;;;;40.08;22.20;;;;;;;17.21;41.46;103136.22;5092924;28;20397;-83
2022/03/22 10:21:12;;;;;;;40.40;21.00;;;;;;;17.09;40.31;103133.78;5110995;28;20480;-82
2022/03/22 10:24:07;;;;;;;38.50;20.58;;;;;;;17.10;43.78;103138.13;5090853;28;20031;-83
2022/03/22 10:26:36;;;;;;;40.13;21.67;;;;;;;17.06;41.15;103134.69;5077424;28;20051;-83
2022/03/22 10:29:01;;;;;;;38.00;20.92;;;;;;;17.14;43.09;103130.19;5090805;28;20366;-83
2022/03/22 10:31:35;;;;;;;36.17;20.15;;;;;;;17.29;41.73;103127.34;5086480;28;20491;-83
2022/03/22 10:34:01;;;;;;;39.05;21.08;;;;;;;17.43;40.33;103131.53;5095841;28;20270;-82
2022/03/22 10:36:26;;;;;;;37.78;21.42;;;;;;;17.47;41.52;103128.81;5102143;28;20032;-82
2022/03/22 10:38:59;;;;;;;37.65;20.83;;;;;;;17.54;40.42;103126.97;5089622;28;20023;-82
2022/03/22 10:41:30;;;;;;;38.22;20.48;;;;;;;17.63;42.05;103122.47;5089785;28;20036;-83
2022/03/22 10:44:15;;;;;;;39.33;20.88;;;;;;;17.70;42.13;103123.22;5089540;28;20028;-83
2022/03/22 10:46:44;;;;;;;38.53;21.92;;;;;;;17.73;41.39;103120.56;5090832;28;20481;-82
2022/03/22 10:49:18;;;;;;;42.72;21.73;;;;;;;17.82;41.28;103120.41;5110530;28;20028;-83
2022/03/22 10:51:48;;;;;;;36.17;22.05;;;;;;;17.87;42.35;103118.59;5079139;28;20374;-83
2022/03/22 10:54:17;;;;;;;43.38;22.48;;;;;;;17.85;39.66;103124.72;5089707;28;20047;-82
2022/03/22 10:56:47;;;;;;;44.60;21.88;;;;;;;17.85;41.01;103119.50;5071072;28;20020;-82
2022/03/22 10:59:14;;;;;;;43.25;19.92;;;;;;;17.86;39.80;103122.09;5098492;28;20108;-83
2022/03/22 11:01:42;;;;;;;38.47;19.95;;;;;;;17.85;38.78;103117.72;5099748;28;20020;-83
2022/03/22 11:04:08;;;;;;;37.80;19.42;;;;;;;17.84;39.26;103126.50;5079434;28;20035;-82
2022/03/22 11:06:37;;;;;;;36.10;19.67;;;;;;;17.86;38.83;103118.59;5088836;28;20496;-82
2022/03/22 11:09:03;;;;;;;39.58;20.25;;;;;;;17.76;37.69;103110.00;5072045;28;20097;-82
2022/03/22 11:11:31;;;;;;;36.70;19.83;;;;;;;17.81;39.16;103117.81;5089288;28;20055;-82
2022/03/22 11:13:57;;;;;;;36.80;19.70;;;;;;;17.91;39.46;103115.00;5099071;28;20027;-82
2022/03/22 11:16:26;;;;;;;38.17;19.77;;;;;;;17.82;38.42;103115.16;5090838;28;20028;-82
2022/03/22 11:18:51;;;;;;;37.13;19.50;;;;;;;17.84;38.71;103112.50;5071278;28;20035;-82
2022/03/22 11:21:19;;;;;;;40.40;20.02;;;;;;;17.88;40.03;103106.31;5088221;28;20076;-83
2022/03/22 11:23:47;;;;;;;39.25;20.38;;;;;;;17.97;39.94;103111.38;5096548;28;20032;-83
2022/03/22 11:26:22;;;;;;;38.42;19.80;;;;;;;17.99;40.62;103104.38;5106635;28;20022;-83
2022/03/22 11:28:49;;;;;;;42.92;20.95;;;;;;;17.96;39.19;103102.66;5089571;28;20043;-83
2022/03/22 11:31:16;;;;;;;41.17;21.05;;;;;;;17.98;38.94;103094.75;5070482;28;20028;-83
2022/03/22 11:36:37;;;;;;;39.30;20.85;;;;;;;17.90;40.01;103101.91;5089451;28;20035;-83
2022/03/22 11:39:02;;;;;;;;;;;;;;;17.98;42.10;103095.63;5101208;28;20157;-83
2022/03/22 11:44:35;;;;;;;40.42;20.45;;;;;;;18.05;39.20;103088.50;5089029;28;20047;-83